Huvudsida
METAR-TAF:

METAR-TAF

Flygplatser :

Kalmar Öland Airport

Kalmar, Sverige

latitud: 56-44N, longitud: 016-18E, höjd: 16 m

Aktuellt väderrapport

Denna rapport gjordes för 27 minuter sedan, klockan 22:50 UTC
Vind 9 kt från ost
Temperatur 11°C
Fuktighet 100%
Tryck 1004 hPa
Sikt 10 km eller mer
lätt regn

METAR: ESMQ 132250Z AUTO 08009KT 9999 -RA FEW004/// SCT005/// OVC008/// 11/11 Q1004

Tid: 01:17 (23:17 UTC)

Väderprognos

Denna rapport gjordes för 4 timmar och 29 minuter sedan, klockan 18:48 UTC
Prognos gäller från 13 kl. 18 UTC till 13 kl. 22 UTC
Vind 6 kt från syd/sydost
Sikt: 6000 m
Brutna moln på en höjd av 200 ft
lätt regn
Temporärt
från 13 kl. 18 UTC till 13 kl. 22 UTC
Sikt: 2000 m
Brutna moln på en höjd av 2000 ft, Cumulonimbus.
regnskurar

TAF: ESMQ 131848Z 1318/1322 16006KT 6000 -RA BKN002 TEMPO 1318/1322 2000 SHRA BKN020CB

Aktuella väderrapporter och prognoser från 4000 flygplatser (METAR- och TAF-rapporter).

De tillgängliga stationerna syns som gula och röda prickar på kartan.

För musen över prickarna för att se namnen på stationerna.

Klicka sedan för att få väderrapporter och prognoser.

För att ändra kartan: Klicka på de gröna knapparna med ett svart kors på för att zooma in; den gröna knappen med ett streck på för att zooma ut; eller på de gröna pilarna för angränsande kartor.


METAR-TAF: